createdAt,value
2022-08-21T00:02:15.020Z,99804.59
2022-08-21T00:04:48.339Z,99808.94
2022-08-21T00:07:26.558Z,99809.45
2022-08-21T00:09:55.614Z,99812.01
2022-08-21T00:12:24.376Z,99813.48
2022-08-21T00:14:56.981Z,99813.31
2022-08-21T00:17:26.023Z,99810.86
2022-08-21T00:19:54.495Z,99802.48
2022-08-21T00:22:23.098Z,99798.14
2022-08-21T00:24:51.487Z,99797.58
2022-08-21T00:27:19.901Z,99800.48
2022-08-21T00:29:48.347Z,99807.54
2022-08-21T00:32:23.777Z,99810.39
2022-08-21T00:34:52.340Z,99810.58
2022-08-21T00:37:21.584Z,99813.71
2022-08-21T00:39:50.012Z,99810.85
2022-08-21T00:42:18.825Z,99811.34
2022-08-21T00:44:51.028Z,99812.65
2022-08-21T00:47:20.542Z,99814.63
2022-08-21T00:49:49.038Z,99816.33
2022-08-21T00:52:24.768Z,99815.30
2022-08-21T00:54:55.095Z,99808.84
2022-08-21T00:57:43.934Z,99801.78
2022-08-21T01:00:19.671Z,99794.70
2022-08-21T01:02:48.187Z,99794.56
2022-08-21T01:05:17.983Z,99793.05
2022-08-21T01:07:46.633Z,99793.80
2022-08-21T01:10:24.224Z,99790.40
2022-08-21T01:12:58.629Z,99789.23
2022-08-21T01:15:33.400Z,99779.55
2022-08-21T01:18:05.800Z,99768.36
2022-08-21T01:20:37.242Z,99759.88
2022-08-21T01:23:06.779Z,99755.32
2022-08-21T01:25:35.728Z,99760.00
2022-08-21T01:28:15.363Z,99757.67
2022-08-21T01:30:45.147Z,99751.13
2022-08-21T01:33:13.473Z,99747.70
2022-08-21T01:35:41.816Z,99740.50
2022-08-21T01:38:10.449Z,99740.33
2022-08-21T01:40:38.831Z,99739.66
2022-08-21T01:43:07.213Z,99739.63
2022-08-21T01:45:35.646Z,99741.60
2022-08-21T01:48:04.779Z,99738.87
2022-08-21T01:50:33.495Z,99739.00
2022-08-21T01:53:01.876Z,99740.05
2022-08-21T01:55:30.274Z,99736.41
2022-08-21T01:58:00.164Z,99738.86
2022-08-21T02:00:28.987Z,99735.25
2022-08-21T02:02:57.495Z,99738.36
2022-08-21T02:05:26.370Z,99730.98
2022-08-21T02:07:58.264Z,99728.66
2022-08-21T02:10:31.002Z,99725.84
2022-08-21T02:13:01.711Z,99724.60
2022-08-21T02:15:32.434Z,99722.33
2022-08-21T02:18:03.341Z,99723.79
2022-08-21T02:20:47.856Z,99723.27
2022-08-21T02:23:17.522Z,99718.52
2022-08-21T02:25:48.569Z,99710.52
2022-08-21T02:28:16.979Z,99708.77
2022-08-21T02:30:48.875Z,99705.31
2022-08-21T02:33:18.553Z,99706.02
2022-08-21T02:35:49.708Z,99702.38
2022-08-21T02:38:24.106Z,99699.85
2022-08-21T02:40:54.297Z,99705.11
2022-08-21T02:43:25.106Z,99702.52
2022-08-21T02:45:56.313Z,99703.21
2022-08-21T02:48:32.656Z,99702.32
2022-08-21T02:51:09.298Z,99704.20
2022-08-21T02:53:39.065Z,99703.69
2022-08-21T02:56:11.835Z,99704.11
2022-08-21T02:58:48.197Z,99709.48
2022-08-21T03:01:17.071Z,99715.14
2022-08-21T03:03:48.678Z,99715.19
2022-08-21T03:06:19.041Z,99719.19
2022-08-21T03:08:47.573Z,99720.63
2022-08-21T03:11:16.596Z,99718.54
2022-08-21T03:13:47.588Z,99717.85
2022-08-21T03:16:16.121Z,99714.08
2022-08-21T03:18:44.447Z,99711.05
2022-08-21T03:21:14.110Z,99715.42
2022-08-21T03:23:43.096Z,99712.44
2022-08-21T03:26:12.605Z,99715.04
2022-08-21T03:28:41.199Z,99720.86
2022-08-21T03:31:09.913Z,99721.88
2022-08-21T03:33:38.358Z,99724.17
2022-08-21T03:36:09.496Z,99728.13
2022-08-21T03:38:40.010Z,99730.27
2022-08-21T03:41:09.523Z,99728.39
2022-08-21T03:43:38.550Z,99730.69
2022-08-21T03:46:07.638Z,99731.44
2022-08-21T03:48:38.462Z,99729.77
2022-08-21T03:51:08.132Z,99727.23
2022-08-21T03:53:37.538Z,99731.71
2022-08-21T03:56:07.737Z,99735.63
2022-08-21T03:58:36.390Z,99733.97
2022-08-21T04:01:07.407Z,99732.58
2022-08-21T04:03:37.824Z,99734.56
2022-08-21T04:06:07.032Z,99737.06
2022-08-21T04:08:35.988Z,99737.77
2022-08-21T04:11:05.250Z,99733.02
2022-08-21T04:13:33.652Z,99728.71
2022-08-21T04:16:02.002Z,99726.05
2022-08-21T04:18:30.391Z,99726.27
2022-08-21T04:21:00.337Z,99728.09
2022-08-21T04:23:28.927Z,99733.37
2022-08-21T04:25:58.459Z,99740.32
2022-08-21T04:28:30.342Z,99737.65
2022-08-21T04:30:59.816Z,99739.54
2022-08-21T04:33:28.186Z,99742.05
2022-08-21T04:35:57.154Z,99745.58
2022-08-21T04:38:25.560Z,99740.16
2022-08-21T04:40:54.172Z,99728.40
2022-08-21T04:43:24.244Z,99728.58
2022-08-21T04:45:53.919Z,99729.94
2022-08-21T04:48:25.176Z,99734.98
2022-08-21T04:51:20.499Z,99733.65
2022-08-21T04:54:07.616Z,99738.78
2022-08-21T04:56:46.521Z,99742.85
2022-08-21T04:59:38.477Z,99745.96
2022-08-21T05:02:09.750Z,99754.55
2022-08-21T05:04:46.117Z,99758.90
2022-08-21T05:07:42.113Z,99766.54
2022-08-21T05:10:11.049Z,99764.38
2022-08-21T05:12:43.668Z,99761.18
2022-08-21T05:15:13.890Z,99756.95
2022-08-21T05:17:43.012Z,99759.37
2022-08-21T05:20:13.498Z,99757.45
2022-08-21T05:22:42.404Z,99757.21
2022-08-21T05:25:11.891Z,99762.13
2022-08-21T05:27:41.608Z,99766.14
2022-08-21T05:30:12.227Z,99776.35
2022-08-21T05:32:40.620Z,99782.02
2022-08-21T05:35:09.448Z,99782.39
2022-08-21T05:37:38.338Z,99781.07
2022-08-21T05:40:22.318Z,99782.48
2022-08-21T05:42:55.398Z,99781.87
2022-08-21T05:45:43.396Z,99789.19
2022-08-21T05:48:18.389Z,99792.67
2022-08-21T05:50:50.421Z,99799.42
2022-08-21T05:53:21.536Z,99800.20
2022-08-21T05:55:51.455Z,99798.20
2022-08-21T05:58:23.997Z,99796.45
2022-08-21T06:00:53.904Z,99799.07
2022-08-21T06:03:41.919Z,99803.03
2022-08-21T06:06:11.374Z,99803.17
2022-08-21T06:08:40.340Z,99795.46
2022-08-21T06:11:20.729Z,99789.80
2022-08-21T06:13:49.232Z,99793.46
2022-08-21T06:16:20.264Z,99796.81
2022-08-21T06:18:53.238Z,99815.34
2022-08-21T06:21:21.588Z,99829.72
2022-08-21T06:23:50.326Z,99841.30
2022-08-21T06:26:19.492Z,99846.26
2022-08-21T06:28:48.028Z,99845.88
2022-08-21T06:31:21.903Z,99845.64
2022-08-21T06:33:51.884Z,99837.98
2022-08-21T06:36:21.994Z,99840.78
2022-08-21T06:38:51.735Z,99840.80
2022-08-21T06:41:24.231Z,99846.93
2022-08-21T06:43:57.527Z,99848.31
2022-08-21T06:46:33.227Z,99853.98
2022-08-21T06:49:01.852Z,99857.02
2022-08-21T06:51:30.370Z,99860.51
2022-08-21T06:53:59.595Z,99861.48
2022-08-21T06:56:28.282Z,99863.16
2022-08-21T06:58:57.262Z,99863.40
2022-08-21T07:01:28.053Z,99867.57
2022-08-21T07:03:56.800Z,99871.80
2022-08-21T07:06:26.053Z,99873.30
2022-08-21T07:08:54.439Z,99875.54
2022-08-21T07:11:28.337Z,99882.06
2022-08-21T07:13:57.678Z,99884.09
2022-08-21T07:16:26.133Z,99885.52
2022-08-21T07:18:54.778Z,99888.08
2022-08-21T07:21:30.152Z,99888.21
2022-08-21T07:23:58.881Z,99888.42
2022-08-21T07:26:27.372Z,99887.81
2022-08-21T07:28:56.115Z,99881.73
2022-08-21T07:31:28.015Z,99879.17
2022-08-21T07:33:56.940Z,99880.40
2022-08-21T07:36:26.486Z,99896.10
2022-08-21T07:38:54.999Z,99909.96
2022-08-21T07:41:29.597Z,99918.08
2022-08-21T07:44:00.604Z,99915.27
2022-08-21T07:46:29.406Z,99911.61
2022-08-21T07:48:58.079Z,99904.61
2022-08-21T07:51:30.063Z,99905.83
2022-08-21T07:54:00.216Z,99907.64
2022-08-21T07:56:31.427Z,99921.36
2022-08-21T07:58:59.795Z,99920.10
2022-08-21T08:01:28.299Z,99919.48
2022-08-21T08:03:57.398Z,99921.39
2022-08-21T08:06:27.311Z,99930.09
2022-08-21T08:08:55.749Z,99925.96
2022-08-21T08:11:24.450Z,99927.78
2022-08-21T08:13:53.764Z,99930.86
2022-08-21T08:16:22.300Z,99929.83
2022-08-21T08:18:51.514Z,99923.89
2022-08-21T08:21:21.942Z,99921.18
2022-08-21T08:23:50.937Z,99921.14
2022-08-21T08:26:19.428Z,99927.23
2022-08-21T08:28:48.741Z,99930.86
2022-08-21T08:31:17.154Z,99928.84
2022-08-21T08:33:45.749Z,99932.48
2022-08-21T08:36:20.060Z,99931.55
2022-08-21T08:38:49.063Z,99934.77
2022-08-21T08:41:23.220Z,99936.95
2022-08-21T08:43:57.078Z,99937.55
2022-08-21T08:46:52.455Z,99945.53
2022-08-21T08:49:43.969Z,99946.15
2022-08-21T08:52:49.713Z,99945.98
2022-08-21T08:55:30.988Z,99947.99
2022-08-21T08:57:59.609Z,99951.34
2022-08-21T09:00:28.323Z,99948.16
2022-08-21T09:03:01.337Z,99946.44
2022-08-21T09:05:49.742Z,99948.71
2022-08-21T09:08:58.288Z,99956.79
2022-08-21T09:11:42.735Z,99958.77
2022-08-21T09:14:55.529Z,99962.25
2022-08-21T09:18:07.831Z,99959.48
2022-08-21T09:21:15.651Z,99960.08
2022-08-21T09:24:01.179Z,99967.35
2022-08-21T09:27:12.159Z,99961.97
2022-08-21T09:29:46.042Z,99963.15
2022-08-21T09:32:37.106Z,99962.62
2022-08-21T09:35:21.030Z,99964.02
2022-08-21T09:37:56.393Z,99966.28
2022-08-21T09:40:36.934Z,99960.70
2022-08-21T09:43:14.562Z,99962.49
2022-08-21T09:45:44.615Z,99961.66
2022-08-21T09:48:26.280Z,99961.52
2022-08-21T09:51:08.268Z,99958.61
2022-08-21T09:53:44.538Z,99959.15
2022-08-21T09:56:52.828Z,99964.59
2022-08-21T09:59:36.853Z,99963.11
2022-08-21T10:02:32.264Z,99955.63
2022-08-21T10:05:26.759Z,99956.44
2022-08-21T10:07:55.178Z,99961.73
2022-08-21T10:10:32.315Z,99964.21
2022-08-21T10:13:27.813Z,99963.63
2022-08-21T10:16:51.074Z,99964.36
2022-08-21T10:19:53.176Z,99959.94
2022-08-21T10:23:08.435Z,99965.42
2022-08-21T10:25:50.459Z,99963.29
2022-08-21T10:29:00.692Z,99959.23
2022-08-21T10:31:47.620Z,99954.16
2022-08-21T10:34:56.756Z,99950.16
2022-08-21T10:38:09.694Z,99948.80
2022-08-21T10:41:14.230Z,99947.54
2022-08-21T10:44:13.725Z,99943.19
2022-08-21T10:47:16.491Z,99946.64
2022-08-21T10:50:20.475Z,99948.41
2022-08-21T10:53:34.978Z,99952.13
2022-08-21T10:56:15.731Z,99958.52
2022-08-21T10:59:39.628Z,99962.51
2022-08-21T11:02:33.084Z,99959.52
2022-08-21T11:05:18.565Z,99964.35
2022-08-21T11:07:53.983Z,99962.70
2022-08-21T11:10:32.123Z,99966.30
2022-08-21T11:13:15.022Z,99960.17
2022-08-21T11:16:01.215Z,99961.07
2022-08-21T11:18:41.216Z,99959.62
2022-08-21T11:21:37.843Z,99960.19
2022-08-21T11:24:30.493Z,99961.72
2022-08-21T11:27:11.369Z,99968.23
2022-08-21T11:29:43.719Z,99968.59
2022-08-21T11:33:01.397Z,99964.17
2022-08-21T11:35:51.828Z,99967.23
2022-08-21T11:38:39.793Z,99966.31
2022-08-21T11:41:30.840Z,99968.60
2022-08-21T11:44:14.751Z,99961.58
2022-08-21T11:47:12.975Z,99962.38
2022-08-21T11:50:34.396Z,99961.78
2022-08-21T11:53:40.310Z,99963.54
2022-08-21T11:56:25.175Z,99963.85
2022-08-21T11:59:05.347Z,99969.45
2022-08-21T12:01:45.978Z,99976.13
2022-08-21T12:04:33.689Z,99973.34
2022-08-21T12:07:17.928Z,99970.52
2022-08-21T12:09:56.518Z,99965.27
2022-08-21T12:12:29.842Z,99967.39
2022-08-21T12:15:26.406Z,99961.86
2022-08-21T12:18:21.661Z,99970.96
2022-08-21T12:21:27.373Z,99967.59
2022-08-21T12:24:13.928Z,99969.05
2022-08-21T12:27:00.721Z,99966.66
2022-08-21T12:29:38.692Z,99969.44
2022-08-21T12:32:16.137Z,99965.52
2022-08-21T12:34:58.765Z,99960.06
2022-08-21T12:37:41.098Z,99960.33
2022-08-21T12:40:22.497Z,99960.89
2022-08-21T12:42:59.121Z,99959.50
2022-08-21T12:45:42.479Z,99954.50
2022-08-21T12:48:19.740Z,99959.69
2022-08-21T12:51:19.164Z,99957.80
2022-08-21T12:53:54.397Z,99959.61
2022-08-21T12:56:34.003Z,99962.13
2022-08-21T12:59:08.948Z,99961.18
2022-08-21T13:01:49.171Z,99963.89
2022-08-21T13:04:26.620Z,99965.77
2022-08-21T13:07:01.043Z,99965.67
2022-08-21T13:09:32.486Z,99964.52
2022-08-21T13:12:01.462Z,99971.25
2022-08-21T13:14:45.894Z,99970.52
2022-08-21T13:17:28.165Z,99970.23
2022-08-21T13:20:12.426Z,99966.65
2022-08-21T13:22:44.818Z,99964.29
2022-08-21T13:25:23.477Z,99964.89
2022-08-21T13:28:16.201Z,99964.61
2022-08-21T13:30:56.876Z,99968.14
2022-08-21T13:33:37.548Z,99968.88
2022-08-21T13:36:25.039Z,99967.72
2022-08-21T13:38:55.373Z,99965.63
2022-08-21T13:41:30.315Z,99965.59
2022-08-21T13:44:06.051Z,99969.29
2022-08-21T13:46:39.281Z,99963.89
2022-08-21T13:49:10.974Z,99966.79
2022-08-21T13:51:40.582Z,99970.63
2022-08-21T13:54:41.024Z,99971.11
2022-08-21T13:57:26.852Z,99970.30
2022-08-21T14:00:16.343Z,99967.58
2022-08-21T14:02:51.887Z,99970.09
2022-08-21T14:05:31.812Z,99966.27
2022-08-21T14:08:22.549Z,99971.63
2022-08-21T14:11:03.970Z,99967.79
2022-08-21T14:13:52.152Z,99967.35
2022-08-21T14:16:28.912Z,99967.23
2022-08-21T14:19:04.298Z,99972.55
2022-08-21T14:21:47.197Z,99970.93
2022-08-21T14:27:20.293Z,99971.63
2022-08-21T14:29:50.224Z,99970.54
2022-08-21T14:32:34.209Z,99971.13
2022-08-21T14:35:02.772Z,99965.67
2022-08-21T14:37:32.450Z,99962.07
2022-08-21T14:40:14.792Z,99963.81
2022-08-21T14:42:43.297Z,99961.68
2022-08-21T14:45:21.280Z,99964.93
2022-08-21T14:47:54.113Z,99966.41
2022-08-21T14:50:23.674Z,99962.77
2022-08-21T14:52:57.165Z,99963.68
2022-08-21T14:55:26.788Z,99965.29
2022-08-21T14:57:57.918Z,99966.06
2022-08-21T15:00:36.325Z,99968.84
2022-08-21T15:03:05.298Z,99968.38
2022-08-21T15:05:34.271Z,99970.96
2022-08-21T15:08:06.003Z,99972.60
2022-08-21T15:10:44.151Z,99966.11
2022-08-21T15:13:23.012Z,99968.45
2022-08-21T15:15:55.397Z,99966.27
2022-08-21T15:18:29.087Z,99967.89
2022-08-21T15:20:58.479Z,99967.33
2022-08-21T15:23:26.979Z,99969.05
2022-08-21T15:25:58.540Z,99961.39
2022-08-21T15:28:31.824Z,99966.14
2022-08-21T15:31:02.528Z,99966.77
2022-08-21T15:33:32.136Z,99968.00
2022-08-21T15:36:00.606Z,99965.14
2022-08-21T15:38:29.227Z,99971.08
2022-08-21T15:40:57.669Z,99969.95
2022-08-21T15:43:36.236Z,99970.98
2022-08-21T15:46:06.863Z,99973.29
2022-08-21T15:48:35.486Z,99971.13
2022-08-21T15:51:04.206Z,99972.82
2022-08-21T15:53:36.374Z,99969.20
2022-08-21T15:56:08.274Z,99968.50
2022-08-21T15:58:37.123Z,99968.23
2022-08-21T16:01:05.713Z,99969.67
2022-08-21T16:03:34.949Z,99969.36
2022-08-21T16:06:03.696Z,99966.58
2022-08-21T16:08:32.117Z,99969.82
2022-08-21T16:11:03.263Z,99966.10
2022-08-21T16:13:44.078Z,99969.29
2022-08-21T16:16:18.045Z,99975.39
2022-08-21T16:18:48.270Z,99975.15
2022-08-21T16:21:16.998Z,99973.98
2022-08-21T16:23:45.575Z,99973.65
2022-08-21T16:26:18.528Z,99966.85
2022-08-21T16:28:58.160Z,99970.06
2022-08-21T16:31:27.335Z,99966.45
2022-08-21T16:33:57.906Z,99965.25
2022-08-21T16:36:27.663Z,99965.09
2022-08-21T16:39:02.180Z,99970.27
2022-08-21T16:41:35.589Z,99974.52
2022-08-21T16:44:06.419Z,99977.20
2022-08-21T16:46:40.673Z,99978.07
2022-08-21T16:49:11.525Z,99981.18
2022-08-21T16:51:40.132Z,99980.30
2022-08-21T16:54:09.511Z,99986.05
2022-08-21T16:56:41.415Z,99984.13
2022-08-21T16:59:15.405Z,99984.37
2022-08-21T17:01:46.633Z,99988.84
2022-08-21T17:04:15.356Z,99984.05
2022-08-21T17:06:44.166Z,99986.30
2022-08-21T17:09:12.816Z,99985.15
2022-08-21T17:11:49.700Z,99985.29
2022-08-21T17:14:24.140Z,99983.34
2022-08-21T17:16:56.913Z,99980.33
2022-08-21T17:19:25.390Z,99980.46
2022-08-21T17:21:53.837Z,99982.66
2022-08-21T17:24:22.492Z,99979.88
2022-08-21T17:26:56.502Z,99989.19
2022-08-21T17:29:34.081Z,99987.41
2022-08-21T17:32:08.796Z,99990.52
2022-08-21T17:34:39.582Z,99989.69
2022-08-21T17:37:07.950Z,99989.63
2022-08-21T17:39:37.339Z,99991.27
2022-08-21T17:42:11.607Z,99993.83
2022-08-21T17:44:44.671Z,99993.90
2022-08-21T17:47:14.630Z,99998.66
2022-08-21T17:49:43.834Z,99997.10
2022-08-21T17:52:14.776Z,99998.33
2022-08-21T17:54:43.848Z,99998.70
2022-08-21T17:57:22.770Z,99996.09
2022-08-21T17:59:56.376Z,100002.35
2022-08-21T18:02:27.955Z,99999.30
2022-08-21T18:04:56.544Z,100003.13
2022-08-21T18:07:32.158Z,100006.40
2022-08-21T18:10:06.040Z,100007.00
2022-08-21T18:12:35.482Z,100004.92
2022-08-21T18:15:08.707Z,100001.14
2022-08-21T18:17:37.277Z,100002.23
2022-08-21T18:20:08.406Z,99997.60
2022-08-21T18:22:38.386Z,100004.19
2022-08-21T18:25:09.004Z,100007.77
2022-08-21T18:27:38.288Z,100005.71
2022-08-21T18:30:10.293Z,100007.02
2022-08-21T18:32:50.325Z,100005.52
2022-08-21T18:35:19.409Z,100010.52
2022-08-21T18:37:50.936Z,100012.77
2022-08-21T18:40:21.357Z,100015.16
2022-08-21T18:42:55.771Z,100018.16
2022-08-21T18:45:24.728Z,100018.84
2022-08-21T18:47:57.239Z,100018.07
2022-08-21T18:50:29.209Z,100015.20
2022-08-21T18:52:58.667Z,100016.35
2022-08-21T18:55:28.074Z,100022.63
2022-08-21T18:57:57.930Z,100017.73
2022-08-21T19:00:32.898Z,100026.60
2022-08-21T19:03:01.997Z,100030.19
2022-08-21T19:05:34.707Z,100030.81
2022-08-21T19:08:04.822Z,100030.58
2022-08-21T19:10:33.759Z,100034.67
2022-08-21T19:13:04.099Z,100037.65
2022-08-21T19:15:37.790Z,100038.84
2022-08-21T19:18:11.191Z,100038.02
2022-08-21T19:20:42.188Z,100034.58
2022-08-21T19:23:15.272Z,100024.41
2022-08-21T19:25:51.705Z,100022.59
2022-08-21T19:28:31.055Z,100017.71
2022-08-21T19:31:06.699Z,100020.17
2022-08-21T19:33:44.187Z,100014.52
2022-08-21T19:36:13.785Z,100018.78
2022-08-21T19:38:43.958Z,100022.48
2022-08-21T19:41:15.766Z,100025.56
2022-08-21T19:43:51.189Z,100029.13
2022-08-21T19:46:41.679Z,100027.57
2022-08-21T19:52:13.804Z,100036.56
2022-08-21T19:54:42.710Z,100039.90
2022-08-21T19:57:12.915Z,100042.88
2022-08-21T19:59:42.602Z,100037.32
2022-08-21T20:02:14.460Z,100038.27
2022-08-21T20:04:53.880Z,100040.43
2022-08-21T20:07:26.643Z,100046.34
2022-08-21T20:09:56.595Z,100038.80
2022-08-21T20:12:25.872Z,100042.96
2022-08-21T20:14:56.883Z,100037.34
2022-08-21T20:17:26.091Z,100036.95
2022-08-21T20:19:55.174Z,100033.27
2022-08-21T20:25:12.964Z,100034.25
2022-08-21T20:27:42.606Z,100030.18
2022-08-21T20:30:12.297Z,100032.42
2022-08-21T20:32:41.065Z,100029.05
2022-08-21T20:35:12.516Z,100030.36
2022-08-21T20:37:42.307Z,100029.53
2022-08-21T20:40:13.439Z,100028.38
2022-08-21T20:42:48.309Z,100024.34
2022-08-21T20:45:26.337Z,100023.05
2022-08-21T20:48:01.669Z,100024.20
2022-08-21T20:53:59.344Z,100016.83
2022-08-21T20:56:46.152Z,100019.33
2022-08-21T20:59:43.798Z,100019.83
2022-08-21T21:02:51.455Z,100020.88
2022-08-21T21:05:31.363Z,100026.42
2022-08-21T21:08:19.850Z,100029.28
2022-08-21T21:10:56.402Z,100026.52
2022-08-21T21:13:34.833Z,100023.71
2022-08-21T21:16:30.155Z,100027.02
2022-08-21T21:19:06.961Z,100028.80
2022-08-21T21:22:07.965Z,100030.48
2022-08-21T21:25:03.599Z,100031.00
2022-08-21T21:27:49.233Z,100031.45
2022-08-21T21:30:34.193Z,100029.57
2022-08-21T21:33:04.918Z,100034.90
2022-08-21T21:35:53.778Z,100037.81
2022-08-21T21:38:51.438Z,100040.89
2022-08-21T21:41:29.856Z,100039.67
2022-08-21T21:44:24.748Z,100034.60
2022-08-21T21:47:24.202Z,100030.66
2022-08-21T21:50:20.952Z,100030.07
2022-08-21T21:53:03.875Z,100026.20
2022-08-21T21:56:15.553Z,100026.66
2022-08-21T21:59:25.741Z,100021.07
2022-08-21T22:02:10.495Z,100018.13
2022-08-21T22:05:22.894Z,100010.64
2022-08-21T22:08:13.946Z,100011.55
2022-08-21T22:11:08.873Z,100008.88
2022-08-21T22:17:36.830Z,100008.08
2022-08-21T22:20:20.169Z,100005.40
2022-08-21T22:22:48.932Z,100005.73
2022-08-21T22:25:28.616Z,100008.33
2022-08-21T22:28:07.781Z,100007.71
2022-08-21T22:30:47.333Z,100006.50
2022-08-21T22:33:29.369Z,100003.79
2022-08-21T22:35:59.019Z,100001.14
2022-08-21T22:38:27.437Z,99999.65
2022-08-21T22:41:19.128Z,99997.68
2022-08-21T22:43:59.765Z,99997.00
2022-08-21T22:46:49.454Z,99995.00
2022-08-21T22:49:36.856Z,100001.66
2022-08-21T22:52:33.065Z,99998.70
2022-08-21T22:55:24.615Z,100001.23
2022-08-21T22:58:25.103Z,99999.05
2022-08-21T23:01:00.808Z,99996.12
2022-08-21T23:03:54.906Z,99996.12
2022-08-21T23:06:44.996Z,99997.20
2022-08-21T23:09:28.351Z,99999.25
2022-08-21T23:12:03.909Z,100001.14
2022-08-21T23:14:54.513Z,100005.43
2022-08-21T23:17:34.358Z,100010.95
2022-08-21T23:20:15.648Z,100008.36
2022-08-21T23:23:23.715Z,100010.25
2022-08-21T23:26:22.839Z,100011.48
2022-08-21T23:29:38.729Z,100010.09
2022-08-21T23:32:52.349Z,100014.01
2022-08-21T23:36:03.001Z,100013.42
2022-08-21T23:38:59.156Z,100015.00
2022-08-21T23:41:42.807Z,100010.52
2022-08-21T23:44:54.919Z,100005.83
2022-08-21T23:48:04.120Z,100002.60
2022-08-21T23:50:56.371Z,100001.03
2022-08-21T23:54:10.710Z,99997.54
2022-08-21T23:57:23.256Z,99992.09
